createdAt,value
2023-04-15T00:02:39.401Z,99.24
2023-04-15T00:06:19.504Z,99.45
2023-04-15T00:09:21.793Z,99.99
2023-04-15T00:12:36.150Z,99.99
2023-04-15T00:15:48.093Z,99.99
2023-04-15T00:18:50.373Z,99.90
2023-04-15T00:21:52.744Z,99.59
2023-04-15T00:24:54.982Z,99.92
2023-04-15T00:28:00.749Z,99.99
2023-04-15T00:31:16.118Z,99.99
2023-04-15T00:34:25.131Z,99.99
2023-04-15T00:37:29.251Z,99.99
2023-04-15T00:40:31.615Z,99.99
2023-04-15T00:43:34.178Z,99.99
2023-04-15T00:46:38.415Z,99.99
2023-04-15T00:49:40.962Z,99.99
2023-04-15T00:52:49.229Z,99.99
2023-04-15T00:55:58.134Z,99.99
2023-04-15T00:59:02.324Z,99.99
2023-04-15T01:02:05.883Z,99.99
2023-04-15T01:05:17.340Z,99.99
2023-04-15T01:08:29.811Z,99.99
2023-04-15T01:11:39.926Z,99.99
2023-04-15T01:14:48.162Z,99.99
2023-04-15T01:17:50.773Z,99.99
2023-04-15T01:21:09.121Z,99.99
2023-04-15T01:24:18.880Z,99.99
2023-04-15T01:27:34.130Z,99.99
2023-04-15T01:30:43.501Z,99.99
2023-04-15T01:33:46.198Z,99.99
2023-04-15T01:36:56.215Z,99.99
2023-04-15T01:40:05.857Z,99.99
2023-04-15T01:43:08.327Z,99.99
2023-04-15T01:46:24.158Z,99.99
2023-04-15T01:49:33.300Z,99.99
2023-04-15T01:52:58.133Z,99.99
2023-04-15T01:56:00.423Z,99.99
2023-04-15T01:59:06.355Z,99.99
2023-04-15T02:02:22.386Z,99.99
2023-04-15T02:05:32.100Z,99.99
2023-04-15T02:08:34.347Z,99.99
2023-04-15T02:11:40.363Z,99.99
2023-04-15T02:14:42.566Z,99.99
2023-04-15T02:17:46.118Z,99.99
2023-04-15T02:20:58.998Z,99.99
2023-04-15T02:24:19.305Z,99.99
2023-04-15T02:27:29.007Z,99.99
2023-04-15T02:30:37.248Z,99.99
2023-04-15T02:33:40.158Z,99.99
2023-04-15T02:36:48.739Z,99.99
2023-04-15T02:39:57.566Z,99.99
2023-04-15T02:43:01.864Z,99.99
2023-04-15T02:46:08.484Z,99.99
2023-04-15T02:49:11.009Z,99.99
2023-04-15T02:52:15.104Z,99.99
2023-04-15T02:55:21.880Z,99.99
2023-04-15T02:58:30.826Z,99.99
2023-04-15T03:01:39.199Z,99.99
2023-04-15T03:04:41.497Z,99.99
2023-04-15T03:07:48.765Z,99.99
2023-04-15T03:10:52.677Z,99.99
2023-04-15T03:13:55.101Z,99.99
2023-04-15T03:17:08.148Z,99.99
2023-04-15T03:20:11.355Z,99.99
2023-04-15T03:23:13.626Z,99.99
2023-04-15T03:26:29.396Z,99.99
2023-04-15T03:29:35.759Z,99.99
2023-04-15T03:32:51.184Z,99.99
2023-04-15T03:35:58.712Z,99.99
2023-04-15T03:39:02.488Z,99.99
2023-04-15T03:42:09.997Z,99.99
2023-04-15T03:45:16.768Z,99.99
2023-04-15T03:48:20.581Z,99.99
2023-04-15T03:51:33.300Z,99.01
2023-04-15T03:54:42.506Z,99.28
2023-04-15T03:57:51.093Z,99.60
2023-04-15T04:00:59.529Z,99.42
2023-04-15T04:04:10.919Z,99.39
2023-04-15T04:07:17.826Z,99.99
2023-04-15T04:10:20.200Z,99.99
2023-04-15T04:13:22.458Z,99.99
2023-04-15T04:16:28.481Z,99.99
2023-04-15T04:19:31.017Z,99.98
2023-04-15T04:22:40.770Z,99.83
2023-04-15T04:25:43.665Z,99.37
2023-04-15T04:28:59.235Z,99.98
2023-04-15T04:32:08.536Z,99.99
2023-04-15T04:35:11.534Z,99.99
2023-04-15T04:38:13.814Z,99.99
2023-04-15T04:41:20.738Z,99.38
2023-04-15T04:44:22.902Z,98.38
2023-04-15T04:47:25.166Z,98.29
2023-04-15T04:50:29.001Z,98.24
2023-04-15T04:53:31.590Z,98.52
2023-04-15T04:56:34.759Z,98.84
2023-04-15T04:59:37.168Z,98.29
2023-04-15T05:02:39.698Z,98.02
2023-04-15T05:05:42.070Z,97.97
2023-04-15T05:08:44.236Z,97.66
2023-04-15T05:11:58.655Z,96.30
2023-04-15T05:15:02.696Z,96.09
2023-04-15T05:18:12.150Z,95.31
2023-04-15T05:21:14.457Z,95.63
2023-04-15T05:24:27.098Z,95.44
2023-04-15T05:27:29.298Z,95.91
2023-04-15T05:30:33.628Z,96.00
2023-04-15T05:33:36.560Z,95.84
2023-04-15T05:36:52.109Z,95.61
2023-04-15T05:40:01.084Z,95.53
2023-04-15T05:43:10.218Z,95.63
2023-04-15T05:46:12.742Z,95.20
2023-04-15T05:49:14.966Z,95.32
2023-04-15T05:52:18.235Z,95.58
2023-04-15T05:55:26.522Z,95.35
2023-04-15T05:58:28.713Z,95.43
2023-04-15T06:01:31.231Z,95.70
2023-04-15T06:04:33.595Z,95.05
2023-04-15T06:07:36.896Z,95.39
2023-04-15T06:10:39.123Z,94.66
2023-04-15T06:13:41.499Z,94.41
2023-04-15T06:16:47.402Z,94.78
2023-04-15T06:19:51.804Z,94.33
2023-04-15T06:22:54.024Z,93.93
2023-04-15T06:26:06.128Z,93.37
2023-04-15T06:29:08.319Z,92.70
2023-04-15T06:32:24.120Z,91.66
2023-04-15T06:35:33.229Z,91.14
2023-04-15T06:38:42.286Z,91.73
2023-04-15T06:41:51.245Z,91.34
2023-04-15T06:45:02.270Z,90.18
2023-04-15T06:48:05.073Z,90.04
2023-04-15T06:51:07.304Z,90.20
2023-04-15T06:54:13.349Z,90.06
2023-04-15T06:57:15.575Z,89.66
2023-04-15T07:00:18.683Z,88.88
2023-04-15T07:03:21.037Z,88.11
2023-04-15T07:06:27.713Z,88.07
2023-04-15T07:09:29.980Z,86.62
2023-04-15T07:12:32.784Z,85.84
2023-04-15T07:15:35.034Z,83.54
2023-04-15T07:18:37.356Z,85.09
2023-04-15T07:21:41.960Z,82.52
2023-04-15T07:24:44.329Z,82.73
2023-04-15T07:27:46.640Z,82.49
2023-04-15T07:30:57.834Z,84.36
2023-04-15T07:34:05.264Z,84.60
2023-04-15T07:37:07.493Z,85.42
2023-04-15T07:40:10.312Z,85.23
2023-04-15T07:43:20.716Z,85.77
2023-04-15T07:46:29.596Z,83.81
2023-04-15T07:49:32.171Z,83.77
2023-04-15T07:52:39.255Z,84.16
2023-04-15T07:55:41.517Z,83.19
2023-04-15T07:58:47.982Z,83.03
2023-04-15T08:01:55.301Z,81.97
2023-04-15T08:04:58.078Z,81.81
2023-04-15T08:08:02.196Z,80.96
2023-04-15T08:11:04.526Z,80.35
2023-04-15T08:14:07.003Z,81.85
2023-04-15T08:17:09.471Z,81.66
2023-04-15T08:20:13.439Z,80.88
2023-04-15T08:23:15.987Z,79.90
2023-04-15T08:26:19.045Z,78.19
2023-04-15T08:29:21.529Z,79.58
2023-04-15T08:32:23.827Z,78.72
2023-04-15T08:35:26.112Z,79.37
2023-04-15T08:38:28.303Z,79.67
2023-04-15T08:41:43.198Z,78.99
2023-04-15T08:44:51.845Z,79.47
2023-04-15T08:48:10.127Z,79.17
2023-04-15T08:51:16.306Z,79.98
2023-04-15T08:54:18.968Z,78.25
2023-04-15T08:57:21.245Z,78.66
2023-04-15T09:00:24.146Z,76.59
2023-04-15T09:03:26.806Z,75.79
2023-04-15T09:06:29.219Z,76.29
2023-04-15T09:09:40.281Z,75.92
2023-04-15T09:12:46.707Z,77.41
2023-04-15T09:15:55.300Z,75.29
2023-04-15T09:19:21.699Z,76.51
2023-04-15T09:22:23.933Z,75.99
2023-04-15T09:25:28.392Z,75.29
2023-04-15T09:28:31.981Z,76.45
2023-04-15T09:31:34.284Z,77.24
2023-04-15T09:34:37.410Z,78.57
2023-04-15T09:37:45.024Z,79.33
2023-04-15T09:40:47.190Z,78.68
2023-04-15T09:43:49.438Z,79.66
2023-04-15T09:46:52.212Z,78.57
2023-04-15T09:50:01.345Z,78.95
2023-04-15T09:53:03.813Z,78.70
2023-04-15T09:56:11.069Z,77.96
2023-04-15T09:59:13.327Z,78.55
2023-04-15T10:02:16.533Z,77.82
2023-04-15T10:05:21.182Z,77.73
2023-04-15T10:08:37.728Z,75.22
2023-04-15T10:11:40.909Z,76.42
2023-04-15T10:14:55.587Z,78.09
2023-04-15T10:18:00.467Z,78.01
2023-04-15T10:21:02.835Z,76.46
2023-04-15T10:24:05.595Z,76.96
2023-04-15T10:27:09.119Z,75.87
2023-04-15T10:30:14.135Z,75.21
2023-04-15T10:33:25.942Z,74.70
2023-04-15T10:36:28.211Z,73.16
2023-04-15T10:39:33.272Z,72.31
2023-04-15T10:42:36.557Z,69.99
2023-04-15T10:45:38.832Z,72.74
2023-04-15T10:48:48.136Z,70.64
2023-04-15T10:51:58.252Z,67.20
2023-04-15T10:55:15.762Z,66.33
2023-04-15T10:58:17.987Z,62.22
2023-04-15T11:01:23.292Z,65.43
2023-04-15T11:04:58.797Z,66.43
2023-04-15T11:08:01.027Z,63.11
2023-04-15T11:11:03.339Z,64.68
2023-04-15T11:14:16.313Z,63.02
2023-04-15T11:17:31.763Z,63.91
2023-04-15T11:20:45.210Z,65.01
2023-04-15T11:23:47.586Z,66.33
2023-04-15T11:26:59.895Z,69.16
2023-04-15T11:30:02.686Z,69.56
2023-04-15T11:33:09.961Z,69.56
2023-04-15T11:36:18.497Z,69.92
2023-04-15T11:39:22.837Z,69.99
2023-04-15T11:42:39.313Z,70.26
2023-04-15T11:45:58.501Z,68.59
2023-04-15T11:49:05.629Z,68.46
2023-04-15T11:52:11.551Z,66.54
2023-04-15T11:55:15.309Z,66.50
2023-04-15T11:58:24.708Z,67.23
2023-04-15T12:01:39.966Z,67.52
2023-04-15T12:04:42.721Z,66.98
2023-04-15T12:08:00.822Z,67.73
2023-04-15T12:11:03.105Z,68.58
2023-04-15T12:14:12.883Z,69.10
2023-04-15T12:17:18.194Z,68.35
2023-04-15T12:20:27.502Z,68.37
2023-04-15T12:23:29.670Z,67.52
2023-04-15T12:26:36.122Z,65.97
2023-04-15T12:29:46.199Z,67.01
2023-04-15T12:32:57.243Z,67.16
2023-04-15T12:35:59.547Z,68.41
2023-04-15T12:39:12.577Z,67.79
2023-04-15T12:42:16.133Z,68.45
2023-04-15T12:45:21.487Z,68.45
2023-04-15T12:48:31.034Z,69.26
2023-04-15T12:51:45.579Z,68.41
2023-04-15T12:54:47.748Z,68.31
2023-04-15T12:57:50.074Z,66.96
2023-04-15T13:00:52.476Z,66.92
2023-04-15T13:03:54.853Z,64.65
2023-04-15T13:07:02.114Z,61.94
2023-04-15T13:10:04.730Z,63.11
2023-04-15T13:13:07.068Z,64.04
2023-04-15T13:16:09.913Z,64.43
2023-04-15T13:19:12.080Z,64.66
2023-04-15T13:22:18.759Z,64.14
2023-04-15T13:25:28.018Z,65.21
2023-04-15T13:28:30.513Z,65.77
2023-04-15T13:31:32.860Z,63.36
2023-04-15T13:34:35.460Z,64.06
2023-04-15T13:37:37.757Z,63.01
2023-04-15T13:40:43.169Z,64.20
2023-04-15T13:43:45.682Z,64.25
2023-04-15T13:46:47.958Z,64.06
2023-04-15T13:50:10.062Z,64.76
2023-04-15T13:53:13.093Z,63.62
2023-04-15T13:56:15.526Z,64.17
2023-04-15T13:59:31.110Z,62.68
2023-04-15T14:02:37.721Z,62.37
2023-04-15T14:05:40.399Z,61.02
2023-04-15T14:08:42.788Z,61.15
2023-04-15T14:11:45.025Z,63.84
2023-04-15T14:14:47.240Z,62.09
2023-04-15T14:17:49.494Z,62.10
2023-04-15T14:20:56.651Z,61.99
2023-04-15T14:23:58.955Z,62.23
2023-04-15T14:27:05.181Z,62.59
2023-04-15T14:30:08.152Z,62.35
2023-04-15T14:33:10.615Z,62.07
2023-04-15T14:36:12.926Z,60.43
2023-04-15T14:39:19.714Z,58.94
2023-04-15T14:42:22.035Z,56.69
2023-04-15T14:45:24.309Z,57.33
2023-04-15T14:48:26.632Z,58.76
2023-04-15T14:51:29.005Z,59.09
2023-04-15T14:54:31.234Z,60.33
2023-04-15T14:57:33.406Z,59.35
2023-04-15T15:00:39.300Z,58.21
2023-04-15T15:03:43.920Z,56.53
2023-04-15T15:06:49.128Z,57.39
2023-04-15T15:09:55.167Z,57.74
2023-04-15T15:12:57.428Z,55.35
2023-04-15T15:16:03.141Z,55.90
2023-04-15T15:19:05.846Z,56.67
2023-04-15T15:22:08.232Z,57.66
2023-04-15T15:25:10.589Z,58.66
2023-04-15T15:28:30.284Z,59.05
2023-04-15T15:31:36.269Z,58.99
2023-04-15T15:34:38.528Z,59.88
2023-04-15T15:37:40.962Z,60.55
2023-04-15T15:40:48.644Z,58.89
2023-04-15T15:43:50.932Z,59.80
2023-04-15T15:47:25.766Z,59.70
2023-04-15T15:50:28.091Z,61.33
2023-04-15T15:53:30.317Z,60.94
2023-04-15T15:56:33.307Z,61.30
2023-04-15T15:59:35.541Z,61.70
2023-04-15T16:05:47.926Z,63.73
2023-04-15T16:08:50.263Z,63.83
2023-04-15T16:11:52.465Z,62.53
2023-04-15T16:14:54.782Z,62.87
2023-04-15T16:17:57.054Z,63.87
2023-04-15T16:21:03.184Z,68.00
2023-04-15T16:24:05.617Z,70.27
2023-04-15T16:27:07.923Z,69.64
2023-04-15T16:30:11.084Z,72.54
2023-04-15T16:33:17.225Z,75.07
2023-04-15T16:36:20.676Z,74.19
2023-04-15T16:39:24.120Z,74.14
2023-04-15T16:42:26.895Z,75.12
2023-04-15T16:45:29.288Z,74.07
2023-04-15T16:48:31.597Z,73.47
2023-04-15T16:51:33.921Z,72.22
2023-04-15T16:54:41.155Z,72.55
2023-04-15T16:58:01.485Z,73.11
2023-04-15T17:01:05.073Z,73.79
2023-04-15T17:04:07.631Z,75.50
2023-04-15T17:07:10.701Z,76.05
2023-04-15T17:10:16.320Z,77.06
2023-04-15T17:13:19.402Z,78.07
2023-04-15T17:16:23.285Z,77.56
2023-04-15T17:19:27.550Z,78.14
2023-04-15T17:22:36.171Z,78.87
2023-04-15T17:25:38.358Z,78.57
2023-04-15T17:28:40.647Z,78.79
2023-04-15T17:31:42.871Z,78.57
2023-04-15T17:34:50.696Z,79.11
2023-04-15T17:37:58.893Z,80.21
2023-04-15T17:41:01.789Z,80.92
2023-04-15T17:44:04.162Z,81.34
2023-04-15T17:47:09.163Z,81.12
2023-04-15T17:50:11.398Z,82.02
2023-04-15T17:53:20.359Z,81.90
2023-04-15T17:56:22.682Z,83.72
2023-04-15T17:59:24.991Z,87.00
2023-04-15T18:02:29.419Z,90.74
2023-04-15T18:05:45.082Z,91.50
2023-04-15T18:08:54.134Z,91.07
2023-04-15T18:11:57.306Z,92.74
2023-04-15T18:15:06.295Z,92.30
2023-04-15T18:18:15.260Z,93.25
2023-04-15T18:21:17.452Z,94.57
2023-04-15T18:24:19.886Z,95.14
2023-04-15T18:27:28.176Z,95.26
2023-04-15T18:30:37.072Z,95.81
2023-04-15T18:33:39.384Z,95.81
2023-04-15T18:36:41.705Z,96.11
2023-04-15T18:39:44.744Z,97.61
2023-04-15T18:43:00.104Z,97.90
2023-04-15T18:46:11.865Z,98.06
2023-04-15T18:49:14.204Z,98.56
2023-04-15T18:52:16.659Z,98.13
2023-04-15T18:55:29.582Z,98.81
2023-04-15T18:59:18.253Z,98.50
2023-04-15T19:02:14.081Z,98.30
2023-04-15T19:05:29.218Z,98.80
2023-04-15T19:08:38.062Z,98.94
2023-04-15T19:11:47.715Z,98.06
2023-04-15T19:14:51.664Z,97.73
2023-04-15T19:18:00.215Z,96.64
2023-04-15T19:21:09.207Z,97.12
2023-04-15T19:24:15.281Z,96.23
2023-04-15T19:27:19.451Z,96.72
2023-04-15T19:30:21.912Z,95.94
2023-04-15T19:33:31.206Z,96.52
2023-04-15T19:36:38.631Z,97.13
2023-04-15T19:39:54.015Z,97.38
2023-04-15T19:43:03.053Z,96.10
2023-04-15T19:46:06.745Z,96.50
2023-04-15T19:49:16.698Z,96.55
2023-04-15T19:52:25.171Z,95.89
2023-04-15T19:55:27.355Z,96.44
2023-04-15T19:58:43.081Z,96.77
2023-04-15T20:01:46.043Z,96.41
2023-04-15T20:04:48.762Z,97.09
2023-04-15T20:07:53.019Z,97.08
2023-04-15T20:11:08.052Z,96.78
2023-04-15T20:14:17.852Z,97.29
2023-04-15T20:17:20.145Z,96.46
2023-04-15T20:20:29.168Z,97.06
2023-04-15T20:23:31.391Z,96.96
2023-04-15T20:26:33.612Z,97.50
2023-04-15T20:29:36.268Z,97.84
2023-04-15T20:32:45.176Z,98.15
2023-04-15T20:35:51.098Z,98.45
2023-04-15T20:38:53.325Z,98.47
2023-04-15T20:41:56.085Z,97.88
2023-04-15T20:44:58.246Z,98.19
2023-04-15T20:48:14.170Z,98.81
2023-04-15T20:51:44.042Z,98.76
2023-04-15T20:54:53.031Z,99.34
2023-04-15T20:57:55.275Z,99.67
2023-04-15T21:01:11.129Z,99.99
2023-04-15T21:04:22.058Z,99.68
2023-04-15T21:07:37.031Z,99.93
2023-04-15T21:10:46.013Z,99.91
2023-04-15T21:14:02.074Z,99.58
2023-04-15T21:17:11.545Z,99.41
2023-04-15T21:20:27.036Z,99.10
2023-04-15T21:23:36.172Z,99.58
2023-04-15T21:26:45.056Z,99.27
2023-04-15T21:29:54.176Z,99.76
2023-04-15T21:33:03.047Z,99.51
2023-04-15T21:36:05.511Z,99.28
2023-04-15T21:39:08.057Z,99.17
2023-04-15T21:42:10.757Z,98.93
2023-04-15T21:45:26.070Z,99.07
2023-04-15T21:48:47.062Z,99.09
2023-04-15T21:51:49.291Z,98.87
2023-04-15T21:54:54.584Z,98.81
2023-04-15T21:58:10.146Z,98.54
2023-04-15T22:01:19.017Z,98.46
2023-04-15T22:04:21.621Z,98.16
2023-04-15T22:07:23.862Z,97.72
2023-04-15T22:10:26.355Z,98.21
2023-04-15T22:13:28.519Z,98.08
2023-04-15T22:16:44.138Z,97.84
2023-04-15T22:19:53.184Z,97.71
2023-04-15T22:23:10.082Z,97.63
2023-04-15T22:26:19.033Z,97.35
2023-04-15T22:29:21.837Z,97.13
2023-04-15T22:32:30.461Z,97.27
2023-04-15T22:35:39.208Z,97.76
2023-04-15T22:38:48.432Z,97.50
2023-04-15T22:41:57.202Z,98.20
2023-04-15T22:45:07.172Z,98.35
2023-04-15T22:48:16.214Z,97.87
2023-04-15T22:51:22.567Z,97.86
2023-04-15T22:54:33.010Z,97.86
2023-04-15T22:57:35.166Z,98.00
2023-04-15T23:00:37.572Z,98.36
2023-04-15T23:03:55.476Z,98.30
2023-04-15T23:07:13.046Z,98.06
2023-04-15T23:10:22.283Z,98.01
2023-04-15T23:14:49.028Z,97.65
2023-04-15T23:17:58.149Z,98.34
2023-04-15T23:21:00.486Z,98.49
2023-04-15T23:24:02.771Z,98.80
2023-04-15T23:27:18.030Z,98.80
2023-04-15T23:30:27.082Z,99.16
2023-04-15T23:33:45.034Z,99.97
2023-04-15T23:36:54.023Z,99.77
2023-04-15T23:39:56.248Z,99.71
2023-04-15T23:43:05.422Z,99.55
2023-04-15T23:46:14.060Z,99.23
2023-04-15T23:49:16.987Z,99.51
2023-04-15T23:52:34.039Z,99.32
2023-04-15T23:55:58.315Z,99.49
2023-04-15T23:59:20.052Z,99.46
